INC805 SKRG-TNCC
Flight info
| Callsign | INC805 |
|---|---|
| Flight time | 1h 15m |
| Altitude | 33000 |
| Route | DIPRA1C DIPRA UW26 CUC UW1 ENPUT UL450 STB UG431 CRO UL325 ALCOT G431 EMAPA EMAPA1B |
| Aircraft | MD82/M-SDFGIRWY/S |
Departure
| Time | 2026-04-25 02:52 |
|---|---|
| Airport | Jose Maria Córdova International Airport (SKRG) |
Arrival
| Time | 2026-04-25 04:08 |
|---|---|
| Airport | Hato International Airport (TNCC) |
| Time | Latitude | Longitude | Altitude | Speed | Heading |
|---|---|---|---|---|---|
| 2026-04-25 02:16 | 6.17067 | -75.42687 | 7021 ft | 0 kts | 292° |
| 2026-04-25 02:42 | 6.17062 | -75.42675 | 7016 ft | 4 kts | 302° |
| 2026-04-25 02:43 | 6.17046 | -75.42660 | 7019 ft | 4 kts | 345° |
| 2026-04-25 02:43 | 6.17025 | -75.42663 | 7017 ft | 4 kts | 31° |
| 2026-04-25 02:43 | 6.17013 | -75.42671 | 7020 ft | 1 kts | 38° |
| 2026-04-25 02:43 | 6.17011 | -75.42672 | 7020 ft | 0 kts | 38° |
| 2026-04-25 02:46 | 6.17040 | -75.42651 | 7022 ft | 11 kts | 36° |
| 2026-04-25 02:47 | 6.17057 | -75.42621 | 7018 ft | 6 kts | 94° |
| 2026-04-25 02:47 | 6.17023 | -75.42569 | 7022 ft | 10 kts | 147° |
| 2026-04-25 02:47 | 6.16952 | -75.42534 | 7017 ft | 13 kts | 148° |
| 2026-04-25 02:47 | 6.16861 | -75.42488 | 7015 ft | 16 kts | 169° |
| 2026-04-25 02:48 | 6.16737 | -75.42485 | 7016 ft | 20 kts | 182° |
| 2026-04-25 02:48 | 6.16583 | -75.42484 | 7004 ft | 25 kts | 180° |
| 2026-04-25 02:48 | 6.16409 | -75.42483 | 6989 ft | 25 kts | 179° |
| 2026-04-25 02:48 | 6.16237 | -75.42481 | 6987 ft | 24 kts | 176° |
| 2026-04-25 02:49 | 6.16075 | -75.42476 | 6985 ft | 24 kts | 181° |
| 2026-04-25 02:49 | 6.15887 | -75.42479 | 6979 ft | 27 kts | 180° |
| 2026-04-25 02:49 | 6.15709 | -75.42478 | 6981 ft | 25 kts | 180° |
| 2026-04-25 02:49 | 6.15522 | -75.42477 | 6980 ft | 29 kts | 180° |
| 2026-04-25 02:50 | 6.15319 | -75.42476 | 6979 ft | 29 kts | 180° |
| 2026-04-25 02:50 | 6.15138 | -75.42475 | 6975 ft | 25 kts | 179° |
| 2026-04-25 02:50 | 6.14974 | -75.42474 | 6978 ft | 22 kts | 180° |
| 2026-04-25 02:50 | 6.14901 | -75.42436 | 6978 ft | 8 kts | 103° |
| 2026-04-25 02:51 | 6.14905 | -75.42361 | 6978 ft | 13 kts | 70° |
| 2026-04-25 02:51 | 6.14966 | -75.42312 | 6978 ft | 10 kts | 18° |
| 2026-04-25 02:51 | 6.15091 | -75.42305 | 6979 ft | 36 kts | 360° |
| 2026-04-25 02:51 | 6.15543 | -75.42310 | 6981 ft | 95 kts | 359° |
| 2026-04-25 02:52 | 6.16388 | -75.42314 | 6990 ft | 145 kts | 0° |
| 2026-04-25 02:52 | 6.17531 | -75.42310 | 7066 ft | 180 kts | 358° |
| 2026-04-25 02:52 | 6.18777 | -75.42323 | 7781 ft | 179 kts | 359° |
| 2026-04-25 02:52 | 6.20118 | -75.42330 | 8091 ft | 205 kts | 359° |
| 2026-04-25 02:53 | 6.21557 | -75.42199 | 8507 ft | 222 kts | 20° |
| 2026-04-25 02:53 | 6.22814 | -75.41257 | 9008 ft | 236 kts | 55° |
| 2026-04-25 02:53 | 6.23653 | -75.39784 | 9575 ft | 251 kts | 63° |
| 2026-04-25 02:53 | 6.24429 | -75.38151 | 10136 ft | 267 kts | 65° |
| 2026-04-25 02:54 | 6.25180 | -75.36392 | 10607 ft | 282 kts | 68° |
| 2026-04-25 02:54 | 6.25895 | -75.34503 | 11067 ft | 296 kts | 70° |
| 2026-04-25 02:54 | 6.26589 | -75.32522 | 11529 ft | 305 kts | 71° |
| 2026-04-25 02:54 | 6.27282 | -75.30472 | 11992 ft | 314 kts | 71° |
| 2026-04-25 02:55 | 6.27982 | -75.28364 | 12465 ft | 323 kts | 71° |
| 2026-04-25 02:55 | 6.28699 | -75.26199 | 13034 ft | 328 kts | 71° |
| 2026-04-25 02:55 | 6.29435 | -75.24028 | 13808 ft | 327 kts | 68° |
| 2026-04-25 02:55 | 6.30306 | -75.21930 | 14529 ft | 324 kts | 65° |
| 2026-04-25 02:56 | 6.31255 | -75.19877 | 15127 ft | 325 kts | 64° |
| 2026-04-25 02:56 | 6.32242 | -75.17800 | 15527 ft | 335 kts | 64° |
| 2026-04-25 02:56 | 6.33273 | -75.15638 | 15767 ft | 351 kts | 64° |
| 2026-04-25 02:56 | 6.34351 | -75.13370 | 15959 ft | 368 kts | 64° |
| 2026-04-25 02:57 | 6.35469 | -75.10999 | 16316 ft | 379 kts | 64° |
| 2026-04-25 02:57 | 6.36594 | -75.08588 | 16992 ft | 383 kts | 64° |
| 2026-04-25 02:57 | 6.37724 | -75.06149 | 17623 ft | 387 kts | 64° |
| 2026-04-25 02:57 | 6.38857 | -75.03684 | 18302 ft | 390 kts | 64° |
| 2026-04-25 02:58 | 6.40000 | -75.01195 | 18845 ft | 394 kts | 64° |
| 2026-04-25 02:58 | 6.41149 | -74.98689 | 19427 ft | 396 kts | 64° |
| 2026-04-25 02:58 | 6.42308 | -74.96161 | 19962 ft | 400 kts | 64° |
| 2026-04-25 02:58 | 6.43463 | -74.93644 | 20498 ft | 403 kts | 64° |
| 2026-04-25 02:59 | 6.44657 | -74.91043 | 21032 ft | 406 kts | 64° |
| 2026-04-25 02:59 | 6.45846 | -74.88456 | 21538 ft | 409 kts | 64° |
| 2026-04-25 02:59 | 6.47030 | -74.85883 | 22044 ft | 412 kts | 64° |
| 2026-04-25 02:59 | 6.48237 | -74.83257 | 22527 ft | 416 kts | 64° |
| 2026-04-25 03:00 | 6.49453 | -74.80606 | 23031 ft | 419 kts | 64° |
| 2026-04-25 03:00 | 6.50678 | -74.77936 | 23495 ft | 422 kts | 64° |
| 2026-04-25 03:00 | 6.51911 | -74.75251 | 23915 ft | 425 kts | 64° |
| 2026-04-25 03:00 | 6.53155 | -74.72545 | 24317 ft | 427 kts | 64° |
| 2026-04-25 03:01 | 6.54407 | -74.69828 | 24681 ft | 430 kts | 64° |
| 2026-04-25 03:01 | 6.55668 | -74.67086 | 25053 ft | 433 kts | 65° |
| 2026-04-25 03:01 | 6.56936 | -74.64334 | 25447 ft | 435 kts | 65° |
| 2026-04-25 03:01 | 6.58211 | -74.61566 | 25846 ft | 437 kts | 65° |
| 2026-04-25 03:02 | 6.59059 | -74.59728 | 26101 ft | 438 kts | 65° |
| 2026-04-25 03:02 | 6.60778 | -74.55991 | 26584 ft | 441 kts | 66° |
| 2026-04-25 03:02 | 6.61643 | -74.54137 | 26839 ft | 442 kts | 64° |
| 2026-04-25 03:02 | 6.63076 | -74.51393 | 27180 ft | 445 kts | 62° |
| 2026-04-25 03:03 | 6.64612 | -74.48681 | 27544 ft | 447 kts | 60° |
| 2026-04-25 03:03 | 6.66229 | -74.46003 | 27875 ft | 450 kts | 56° |
| 2026-04-25 03:03 | 6.68086 | -74.43464 | 28217 ft | 453 kts | 53° |
| 2026-04-25 03:03 | 6.70051 | -74.40971 | 28550 ft | 455 kts | 53° |
| 2026-04-25 03:04 | 6.72024 | -74.38471 | 28843 ft | 457 kts | 53° |
| 2026-04-25 03:04 | 6.73979 | -74.35944 | 29177 ft | 459 kts | 54° |
| 2026-04-25 03:04 | 6.75920 | -74.33381 | 29485 ft | 461 kts | 54° |
| 2026-04-25 03:05 | 6.79775 | -74.28181 | 30070 ft | 466 kts | 55° |
| 2026-04-25 03:05 | 6.81703 | -74.25559 | 30325 ft | 467 kts | 55° |
| 2026-04-25 03:05 | 6.83639 | -74.22925 | 30540 ft | 470 kts | 55° |
| 2026-04-25 03:05 | 6.85591 | -74.20276 | 30775 ft | 471 kts | 56° |
| 2026-04-25 03:06 | 6.87548 | -74.17628 | 31070 ft | 471 kts | 55° |
| 2026-04-25 03:06 | 6.89505 | -74.14988 | 31406 ft | 470 kts | 56° |
| 2026-04-25 03:06 | 6.91460 | -74.12354 | 31717 ft | 469 kts | 56° |
| 2026-04-25 03:06 | 6.93411 | -74.09722 | 32026 ft | 469 kts | 56° |
| 2026-04-25 03:07 | 6.95357 | -74.07095 | 32345 ft | 468 kts | 56° |
| 2026-04-25 03:07 | 6.97305 | -74.04466 | 32640 ft | 468 kts | 56° |
| 2026-04-25 03:07 | 6.99253 | -74.01834 | 32791 ft | 471 kts | 56° |
| 2026-04-25 03:07 | 7.01221 | -73.99172 | 32859 ft | 476 kts | 56° |
| 2026-04-25 03:08 | 7.05193 | -73.93801 | 32905 ft | 485 kts | 56° |
| 2026-04-25 03:08 | 7.09234 | -73.88346 | 32906 ft | 486 kts | 56° |
| 2026-04-25 03:09 | 7.13276 | -73.82892 | 32904 ft | 485 kts | 56° |
| 2026-04-25 03:09 | 7.17305 | -73.77447 | 32911 ft | 484 kts | 56° |
| 2026-04-25 03:10 | 7.21330 | -73.72006 | 32927 ft | 484 kts | 56° |
| 2026-04-25 03:10 | 7.25357 | -73.66562 | 32941 ft | 485 kts | 56° |
| 2026-04-25 03:11 | 7.29363 | -73.61149 | 32954 ft | 484 kts | 56° |
| 2026-04-25 03:11 | 7.33390 | -73.55706 | 32964 ft | 485 kts | 56° |
| 2026-04-25 03:12 | 7.37419 | -73.50259 | 32970 ft | 485 kts | 56° |
| 2026-04-25 03:12 | 7.41453 | -73.44806 | 32980 ft | 485 kts | 56° |
| 2026-04-25 03:13 | 7.45484 | -73.39351 | 32990 ft | 485 kts | 56° |
| 2026-04-25 03:13 | 7.49512 | -73.33898 | 33007 ft | 485 kts | 56° |
| 2026-04-25 03:14 | 7.53545 | -73.28439 | 33022 ft | 485 kts | 56° |
| 2026-04-25 03:14 | 7.57555 | -73.23008 | 33039 ft | 486 kts | 56° |
| 2026-04-25 03:15 | 7.61593 | -73.17541 | 33060 ft | 486 kts | 56° |
| 2026-04-25 03:15 | 7.65158 | -73.12714 | 33078 ft | 485 kts | 56° |
| 2026-04-25 03:16 | 7.69185 | -73.07254 | 33083 ft | 485 kts | 56° |
| 2026-04-25 03:16 | 7.73212 | -73.01786 | 33092 ft | 486 kts | 56° |
| 2026-04-25 03:17 | 7.77249 | -72.96313 | 33099 ft | 487 kts | 56° |
| 2026-04-25 03:17 | 7.81286 | -72.90840 | 33089 ft | 486 kts | 56° |
| 2026-04-25 03:18 | 7.85332 | -72.85353 | 33085 ft | 487 kts | 56° |
| 2026-04-25 03:18 | 7.89344 | -72.79903 | 33061 ft | 487 kts | 56° |
| 2026-04-25 03:19 | 7.93385 | -72.74417 | 33048 ft | 487 kts | 56° |
| 2026-04-25 03:19 | 7.97428 | -72.68922 | 33047 ft | 487 kts | 56° |
| 2026-04-25 03:20 | 8.01469 | -72.63426 | 33044 ft | 488 kts | 56° |
| 2026-04-25 03:20 | 8.05520 | -72.57924 | 33038 ft | 487 kts | 56° |
| 2026-04-25 03:21 | 8.09563 | -72.52428 | 33034 ft | 488 kts | 56° |
| 2026-04-25 03:21 | 8.13608 | -72.46929 | 33025 ft | 488 kts | 56° |
| 2026-04-25 03:22 | 8.17656 | -72.41426 | 33010 ft | 488 kts | 56° |
| 2026-04-25 03:22 | 8.22153 | -72.36357 | 33007 ft | 494 kts | 36° |
| 2026-04-25 03:23 | 8.28161 | -72.32954 | 32997 ft | 497 kts | 28° |
| 2026-04-25 03:23 | 8.34302 | -72.29741 | 32985 ft | 496 kts | 29° |
| 2026-04-25 03:24 | 8.40371 | -72.26428 | 32974 ft | 495 kts | 30° |
| 2026-04-25 03:24 | 8.46389 | -72.23039 | 32972 ft | 495 kts | 31° |
| 2026-04-25 03:25 | 8.52409 | -72.19640 | 32967 ft | 495 kts | 30° |
| 2026-04-25 03:25 | 8.58434 | -72.16257 | 32964 ft | 495 kts | 30° |
| 2026-04-25 03:26 | 8.64466 | -72.12880 | 32960 ft | 496 kts | 30° |
| 2026-04-25 03:26 | 8.70502 | -72.09498 | 32954 ft | 496 kts | 30° |
| 2026-04-25 03:27 | 8.76538 | -72.06116 | 32955 ft | 496 kts | 30° |
| 2026-04-25 03:27 | 8.82572 | -72.02732 | 32953 ft | 496 kts | 30° |
| 2026-04-25 03:28 | 8.88566 | -71.99370 | 32952 ft | 495 kts | 30° |
| 2026-04-25 03:28 | 8.94595 | -71.95988 | 32953 ft | 496 kts | 30° |
| 2026-04-25 03:29 | 9.00340 | -71.92160 | 32960 ft | 494 kts | 42° |
| 2026-04-25 03:29 | 9.05397 | -71.87449 | 32956 ft | 494 kts | 44° |
| 2026-04-25 03:30 | 9.10423 | -71.82692 | 32950 ft | 494 kts | 44° |
| 2026-04-25 03:30 | 9.15502 | -71.78002 | 32951 ft | 494 kts | 43° |
| 2026-04-25 03:31 | 9.20582 | -71.73374 | 32955 ft | 494 kts | 43° |
| 2026-04-25 03:31 | 9.25692 | -71.68715 | 32950 ft | 494 kts | 43° |
| 2026-04-25 03:32 | 9.30788 | -71.64050 | 32950 ft | 494 kts | 43° |
| 2026-04-25 03:32 | 9.35881 | -71.59376 | 32952 ft | 494 kts | 43° |
| 2026-04-25 03:33 | 9.40975 | -71.54701 | 32954 ft | 494 kts | 43° |
| 2026-04-25 03:33 | 9.46076 | -71.50022 | 32952 ft | 495 kts | 43° |
| 2026-04-25 03:34 | 9.51176 | -71.45342 | 32953 ft | 495 kts | 43° |
| 2026-04-25 03:34 | 9.56278 | -71.40658 | 32951 ft | 495 kts | 43° |
| 2026-04-25 03:35 | 9.61384 | -71.35969 | 32949 ft | 495 kts | 43° |
| 2026-04-25 03:35 | 9.66479 | -71.31283 | 32954 ft | 495 kts | 43° |
| 2026-04-25 03:36 | 9.71548 | -71.26621 | 32954 ft | 495 kts | 43° |
| 2026-04-25 03:36 | 9.76645 | -71.21936 | 32954 ft | 495 kts | 43° |
| 2026-04-25 03:37 | 9.81747 | -71.17241 | 32955 ft | 495 kts | 43° |
| 2026-04-25 03:37 | 9.86841 | -71.12539 | 32953 ft | 495 kts | 43° |
| 2026-04-25 03:38 | 9.91943 | -71.07832 | 32961 ft | 496 kts | 43° |
| 2026-04-25 03:38 | 9.97055 | -71.03119 | 32968 ft | 496 kts | 43° |
| 2026-04-25 03:39 | 10.02168 | -70.98406 | 32976 ft | 496 kts | 43° |
| 2026-04-25 03:39 | 10.07280 | -70.93690 | 32983 ft | 497 kts | 43° |
| 2026-04-25 03:40 | 10.12394 | -70.88970 | 32989 ft | 497 kts | 43° |
| 2026-04-25 03:40 | 10.17511 | -70.84234 | 32994 ft | 497 kts | 43° |
| 2026-04-25 03:41 | 10.22631 | -70.79508 | 32993 ft | 498 kts | 43° |
| 2026-04-25 03:41 | 10.27754 | -70.74777 | 33008 ft | 498 kts | 43° |
| 2026-04-25 03:42 | 10.32845 | -70.70072 | 32996 ft | 498 kts | 43° |
| 2026-04-25 03:42 | 10.37964 | -70.65331 | 33005 ft | 498 kts | 43° |
| 2026-04-25 03:43 | 10.43094 | -70.60584 | 33004 ft | 499 kts | 43° |
| 2026-04-25 03:43 | 10.48223 | -70.55837 | 33005 ft | 499 kts | 43° |
| 2026-04-25 03:44 | 10.53356 | -70.51082 | 33004 ft | 499 kts | 43° |
| 2026-04-25 03:44 | 10.58487 | -70.46327 | 33005 ft | 499 kts | 43° |
| 2026-04-25 03:45 | 10.63621 | -70.41567 | 33004 ft | 500 kts | 43° |
| 2026-04-25 03:45 | 10.68712 | -70.36823 | 33003 ft | 500 kts | 43° |
| 2026-04-25 03:46 | 10.73822 | -70.32039 | 32997 ft | 499 kts | 43° |
| 2026-04-25 03:46 | 10.78936 | -70.27276 | 32993 ft | 498 kts | 43° |
| 2026-04-25 03:47 | 10.84060 | -70.22510 | 32993 ft | 498 kts | 43° |
| 2026-04-25 03:47 | 10.89169 | -70.17752 | 32989 ft | 498 kts | 43° |
| 2026-04-25 03:48 | 10.94274 | -70.12993 | 32987 ft | 497 kts | 43° |
| 2026-04-25 03:48 | 10.99369 | -70.08240 | 32986 ft | 497 kts | 43° |
| 2026-04-25 03:49 | 11.03608 | -70.04286 | 32985 ft | 496 kts | 43° |
| 2026-04-25 03:49 | 11.08700 | -69.99538 | 32973 ft | 496 kts | 43° |
| 2026-04-25 03:50 | 11.13798 | -69.94802 | 32987 ft | 496 kts | 43° |
| 2026-04-25 03:50 | 11.18899 | -69.90066 | 32978 ft | 496 kts | 43° |
| 2026-04-25 03:51 | 11.23996 | -69.85329 | 32978 ft | 496 kts | 43° |
| 2026-04-25 03:51 | 11.29091 | -69.80589 | 32981 ft | 496 kts | 43° |
| 2026-04-25 03:52 | 11.34187 | -69.75850 | 32979 ft | 496 kts | 43° |
| 2026-04-25 03:52 | 11.39280 | -69.71109 | 32980 ft | 496 kts | 43° |
| 2026-04-25 03:53 | 11.44441 | -69.66413 | 32216 ft | 499 kts | 41° |
| 2026-04-25 03:53 | 11.47078 | -69.64143 | 31229 ft | 488 kts | 40° |
| 2026-04-25 03:53 | 11.49643 | -69.61966 | 30278 ft | 470 kts | 40° |
| 2026-04-25 03:54 | 11.52115 | -69.59864 | 29247 ft | 455 kts | 40° |
| 2026-04-25 03:54 | 11.54503 | -69.57821 | 28203 ft | 442 kts | 40° |
| 2026-04-25 03:54 | 11.56816 | -69.55828 | 27213 ft | 430 kts | 40° |
| 2026-04-25 03:54 | 11.59066 | -69.53881 | 26253 ft | 419 kts | 40° |
| 2026-04-25 03:55 | 11.61257 | -69.51977 | 25326 ft | 409 kts | 40° |
| 2026-04-25 03:55 | 11.63397 | -69.50116 | 24429 ft | 400 kts | 40° |
| 2026-04-25 03:55 | 11.65492 | -69.48293 | 23556 ft | 392 kts | 39° |
| 2026-04-25 03:55 | 11.67518 | -69.46532 | 22550 ft | 385 kts | 39° |
| 2026-04-25 03:56 | 11.69544 | -69.44775 | 21546 ft | 378 kts | 39° |
| 2026-04-25 03:56 | 11.71535 | -69.43051 | 20595 ft | 372 kts | 39° |
| 2026-04-25 03:56 | 11.73494 | -69.41355 | 19661 ft | 366 kts | 39° |
| 2026-04-25 03:56 | 11.75423 | -69.39685 | 18756 ft | 361 kts | 39° |
| 2026-04-25 03:57 | 11.77320 | -69.38041 | 17828 ft | 355 kts | 39° |
| 2026-04-25 03:57 | 11.79190 | -69.36415 | 16814 ft | 350 kts | 39° |
| 2026-04-25 03:57 | 11.81029 | -69.34815 | 15848 ft | 345 kts | 39° |
| 2026-04-25 03:57 | 11.82838 | -69.33238 | 14907 ft | 339 kts | 39° |
| 2026-04-25 03:58 | 11.84621 | -69.31685 | 13996 ft | 334 kts | 39° |
| 2026-04-25 03:58 | 11.86377 | -69.30160 | 13010 ft | 329 kts | 39° |
| 2026-04-25 03:58 | 11.88110 | -69.28661 | 12030 ft | 324 kts | 39° |
| 2026-04-25 03:58 | 11.89817 | -69.27185 | 11078 ft | 319 kts | 39° |
| 2026-04-25 03:59 | 11.91499 | -69.25732 | 10142 ft | 315 kts | 39° |
| 2026-04-25 03:59 | 11.93164 | -69.24291 | 9416 ft | 317 kts | 40° |
| 2026-04-25 03:59 | 11.94859 | -69.22866 | 8928 ft | 313 kts | 33° |
| 2026-04-25 03:59 | 11.96818 | -69.21949 | 8464 ft | 309 kts | 17° |
| 2026-04-25 04:00 | 11.98869 | -69.21335 | 7982 ft | 306 kts | 15° |
| 2026-04-25 04:00 | 12.00915 | -69.20760 | 7496 ft | 304 kts | 15° |
| 2026-04-25 04:00 | 12.02950 | -69.20193 | 7026 ft | 302 kts | 15° |
| 2026-04-25 04:00 | 12.04974 | -69.19633 | 6560 ft | 301 kts | 15° |
| 2026-04-25 04:01 | 12.06971 | -69.19076 | 6086 ft | 300 kts | 15° |
| 2026-04-25 04:01 | 12.08976 | -69.18508 | 5594 ft | 299 kts | 16° |
| 2026-04-25 04:01 | 12.10972 | -69.17931 | 5112 ft | 297 kts | 17° |
| 2026-04-25 04:01 | 12.12955 | -69.17349 | 4639 ft | 296 kts | 17° |
| 2026-04-25 04:02 | 12.14953 | -69.16834 | 4133 ft | 294 kts | 14° |
| 2026-04-25 04:02 | 12.16890 | -69.16405 | 3622 ft | 275 kts | 13° |
| 2026-04-25 04:02 | 12.18706 | -69.16027 | 3258 ft | 257 kts | 14° |
| 2026-04-25 04:02 | 12.20327 | -69.15499 | 3094 ft | 230 kts | 37° |
| 2026-04-25 04:03 | 12.21244 | -69.14383 | 3055 ft | 190 kts | 75° |
| 2026-04-25 04:03 | 12.21416 | -69.13084 | 3034 ft | 183 kts | 85° |
| 2026-04-25 04:03 | 12.21546 | -69.11792 | 2891 ft | 182 kts | 87° |
| 2026-04-25 04:03 | 12.21586 | -69.10510 | 2813 ft | 179 kts | 92° |
| 2026-04-25 04:04 | 12.21501 | -69.09243 | 2717 ft | 178 kts | 98° |
| 2026-04-25 04:04 | 12.21346 | -69.07982 | 2569 ft | 181 kts | 98° |
| 2026-04-25 04:04 | 12.21140 | -69.06663 | 2051 ft | 193 kts | 101° |
| 2026-04-25 04:04 | 12.20871 | -69.05325 | 1745 ft | 189 kts | 103° |
| 2026-04-25 04:05 | 12.20596 | -69.04037 | 1467 ft | 181 kts | 103° |
| 2026-04-25 04:05 | 12.20346 | -69.02838 | 1230 ft | 165 kts | 102° |
| 2026-04-25 04:05 | 12.20119 | -69.01777 | 989 ft | 143 kts | 102° |
| 2026-04-25 04:05 | 12.19924 | -69.00848 | 802 ft | 125 kts | 101° |
| 2026-04-25 04:06 | 12.19742 | -68.99985 | 567 ft | 124 kts | 101° |
| 2026-04-25 04:06 | 12.19572 | -68.99143 | 463 ft | 117 kts | 103° |
| 2026-04-25 04:06 | 12.19376 | -68.98318 | 423 ft | 123 kts | 99° |
| 2026-04-25 04:06 | 12.19203 | -68.97433 | 217 ft | 127 kts | 104° |
| 2026-04-25 04:07 | 12.19013 | -68.96558 | 54 ft | 123 kts | 103° |
| 2026-04-25 04:07 | 12.18953 | -68.96280 | 48 ft | 114 kts | 103° |
| 2026-04-25 04:07 | 12.18820 | -68.95645 | 39 ft | 87 kts | 102° |
| 2026-04-25 04:07 | 12.18728 | -68.95223 | 41 ft | 54 kts | 102° |
| 2026-04-25 04:08 | 12.18659 | -68.94902 | 47 ft | 43 kts | 102° |
| 2026-04-25 04:08 | 12.18596 | -68.94612 | 48 ft | 41 kts | 102° |
| 2026-04-25 04:08 | 12.18538 | -68.94465 | 48 ft | 12 kts | 153° |
| 2026-04-25 04:08 | 12.18427 | -68.94488 | 46 ft | 15 kts | 213° |
| 2026-04-25 04:09 | 12.18426 | -68.94643 | 47 ft | 63 kts | 285° |
| 2026-04-25 04:09 | 12.18591 | -68.95408 | 39 ft | 104 kts | 282° |
| 2026-04-25 04:09 | 12.18635 | -68.95653 | 40 ft | 10 kts | 247° |
| 2026-04-25 04:09 | 12.18606 | -68.95668 | 41 ft | 4 kts | 191° |
| 2026-04-25 04:10 | 12.18576 | -68.95675 | 43 ft | 9 kts | 193° |
| 2026-04-25 04:10 | 12.18551 | -68.95680 | 44 ft | 0 kts | 192° |